Latest Weather Observations for Bombala AWS

IDN60801

Issued at 10:03 pm EST Monday 26 September 2016 (issued every 30 minutes, with the page automatically refreshed every 10 minutes)

About weather observations | Map of weather stations | Latest weather observations for NSW | Other Formats
Station Details ID: 070328 Name: BOMBALA AWS Lat: -37.00 Lon: 149.23 Height: 760.5 m
Data from the previous 72 hours. | See also: Recent months at Bombala AWS
Date/Time
EST
Temp
°C
App
Temp
°C
Dew
Point
°C
Rel
Hum
%
Delta-T
°C
Wind Press
QNH
hPa
Press
MSL
hPa
Rain since
9am
mm
Dir  Spd
km/h
Gust
km/h
Spd
kts
Gust
kts
26/10:00pm 4.5 1.8 3.9 96 0.3 N 7 9 4 5 1011.7 1011.6 0.0
26/09:30pm 5.7 3.8 4.7 93 0.5 NW 4 6 2 3 1011.7 1011.6 0.0
26/09:00pm 5.9 4.7 4.7 92 0.5 CALM 0 0 0 0 1011.8 1011.7 0.0
26/08:30pm 6.0 4.9 5.1 94 0.4 CALM 0 0 0 0 1011.8 1011.7 0.0
26/08:00pm 6.2 2.9 4.7 90 0.7 WSW 11 20 6 11 1011.7 1011.6 0.0
26/07:30pm 6.8 5.4 3.6 80 1.4 CALM 0 0 0 0 1011.3 1011.1 0.0
26/07:00pm 6.8 5.3 3.2 78 1.6 CALM 0 0 0 0 1010.8 1010.7 0.0
26/06:30pm 7.2 4.5 3.6 78 1.6 W 7 9 4 5 1010.8 1010.7 0.0
26/06:00pm 8.2 3.1 3.3 71 2.2 WNW 19 24 10 13 1010.7 1010.6 0.0
26/05:30pm 8.9 5.4 3.3 68 2.5 WNW 11 15 6 8 1010.5 1010.4 0.0
26/05:00pm 9.1 5.5 2.9 65 2.8 WNW 11 15 6 8 1010.1 1009.9 0.0
26/04:30pm 9.4 5.4 2.9 64 2.9 WSW 13 15 7 8 1010.0 1009.8 0.0
26/04:00pm 9.6 5.5 2.0 59 3.4 WSW 13 15 7 8 1009.9 1009.7 0.0
26/03:30pm 9.8 6.2 2.9 62 3.1 SW 11 15 6 8 1009.8 1009.6 0.0
26/03:00pm 10.0 5.5 1.9 57 3.6 WSW 15 20 8 11 1009.8 1009.6 0.0
26/02:30pm 10.8 6.7 4.5 65 3.0 WSW 15 22 8 12 1009.9 1009.7 0.0
26/02:00pm 8.8 2.5 3.6 70 2.4 WSW 26 33 14 18 1010.1 1009.9 0.0
26/01:30pm 10.3 5.4 2.2 57 3.6 W 17 24 9 13 1010.0 1009.8 0.0
26/01:00pm 11.1 7.5 3.2 58 3.6 WNW 11 20 6 11 1010.2 1010.0 0.0
26/12:30pm 10.1 6.0 2.0 57 3.6 SW 13 20 7 11 1010.6 1010.5 0.0
26/12:00pm 10.1 6.0 2.2 58 3.5 WSW 13 20 7 11 1010.8 1010.7 0.0
26/11:30am 9.6 4.6 1.3 56 3.6 W 17 24 9 13 1011.3 1011.1 0.0
26/11:00am 9.7 5.7 2.8 62 3.1 SW 13 19 7 10 1011.6 1011.5 0.0
26/10:30am 8.6 3.3 2.0 63 2.9 W 19 28 10 15 1012.0 1011.9 0.0
26/10:00am 7.5 2.5 1.1 64 2.7 W 17 24 9 13 1012.6 1012.4 0.0
26/09:30am 7.2 1.9 1.9 69 2.3 WSW 19 24 10 13 1012.6 1012.4 0.0
26/09:00am 6.3 2.1 1.6 72 2.0 WSW 13 17 7 9 1013.0 1012.9 0.0
26/08:30am 6.0 1.1 2.1 76 1.7 WSW 17 24 9 13 1013.2 1013.1 0.0
26/08:00am 4.9 1.0 1.4 78 1.5 W 11 15 6 8 1012.7 1012.6 0.0
26/07:30am 4.7 1.6 1.4 79 1.4 NW 7 11 4 6 1013.0 1012.9 0.0
26/07:00am 3.8 0.7 1.5 85 0.9 WNW 7 13 4 7 1012.7 1012.6 0.0
26/06:30am 1.8 -1.8 0.9 94 0.4 NW 9 13 5 7 1012.6 1012.4 0.0
26/06:00am 1.6 -2.3 1.0 96 0.2 NW 11 13 6 7 1012.6 1012.4 0.0
26/05:30am 2.0 -0.3 0.7 91 0.5 WSW 2 4 1 2 1012.4 1012.3 0.0
26/05:00am 1.9 -1.8 0.1 88 0.7 WSW 9 15 5 8 1012.2 1012.1 0.0
26/04:30am 2.9 -1.4 0.8 86 0.8 WSW 13 19 7 10 1012.2 1012.1 0.0
26/04:00am 2.9 -1.4 1.0 87 0.8 WSW 13 17 7 9 1012.0 1011.9 0.0
26/03:30am 2.1 -1.8 0.9 92 0.5 WSW 11 17 6 9 1011.9 1011.8 0.0
26/03:00am 2.3 -1.3 0.8 90 0.6 WSW 9 13 5 7 1011.8 1011.7 0.0
26/02:30am 2.0 -1.6 0.5 90 0.6 SW 9 11 5 6 1012.0 1011.9 0.0
26/02:00am 2.8 -0.4 1.0 88 0.7 SW 7 7 4 4 1012.1 1012.0 0.0
26/01:30am 3.1 -1.6 1.2 87 0.8 SW 15 20 8 11 1012.3 1012.2 0.0
26/01:00am 4.1 -2.2 1.5 83 1.1 SW 24 32 13 17 1012.1 1012.0 0.0
26/12:30am 4.9 -1.7 1.9 81 1.3 SW 26 35 14 19 1012.3 1012.2 0.0
26/12:00am 5.3 -0.5 2.3 81 1.3 WSW 22 30 12 16 1012.3 1012.2 0.0
 
Date/Time
EST
Temp
°C
App
Temp
°C
Dew
Point
°C
Rel
Hum
%
Delta-T
°C
Wind Press
QNH
hPa
Press
MSL
hPa
Rain since
9am
mm
Dir  Spd
km/h
Gust
km/h
Spd
kts
Gust
kts
25/11:30pm 5.5 -0.3 2.5 81 1.3 SW 22 33 12 18 1012.0 1011.9 0.0
25/11:00pm 6.0 1.4 3.7 85 1.0 SW 17 32 9 17 1012.1 1012.0 0.0
25/10:30pm 6.1 1.3 4.4 89 0.8 SW 19 24 10 13 1012.0 1011.9 0.0
25/10:00pm 6.2 2.0 4.0 86 1.0 SW 15 20 8 11 1011.8 1011.7 0.0
25/09:30pm 6.2 2.0 4.0 86 1.0 SW 15 20 8 11 1011.7 1011.6 0.0
25/09:00pm 6.4 1.8 3.6 82 1.2 WSW 17 24 9 13 1011.7 1011.6 0.0
25/08:30pm 6.4 2.3 4.1 85 1.0 SW 15 19 8 10 1011.5 1011.3 0.0
25/08:00pm 6.5 1.6 4.3 86 1.0 SW 19 22 10 12 1011.3 1011.1 0.0
25/07:30pm 6.5 2.1 4.7 88 0.8 SW 17 24 9 13 1010.9 1010.8 0.0
25/07:00pm 6.5 1.7 4.8 89 0.8 SW 19 30 10 16 1010.4 1010.3 0.0
25/06:30pm 6.7 1.2 4.2 84 1.1 SW 22 30 12 16 1010.1 1009.9 0.0
25/06:00pm 7.2 2.4 5.7 90 0.7 SW 20 26 11 14 1009.6 1009.5 0.0
25/05:30pm 7.3 2.9 6.4 94 0.4 SSW 19 24 10 13 1009.4 1009.3 0.0
25/05:00pm 8.1 4.9 6.7 91 0.7 SSW 13 20 7 11 1009.0 1008.8 0.0
25/04:30pm 8.3 4.5 7.5 95 0.4 S 17 22 9 12 1008.9 1008.7 0.0
25/04:00pm 8.6 3.7 6.9 89 0.8 S 22 28 12 15 1008.5 1008.3 0.0
25/03:30pm 9.2 4.4 7.2 87 1.0 S 22 28 12 15 1008.2 1008.1 0.0
25/03:00pm 9.9 5.5 7.5 85 1.2 S 20 26 11 14 1008.1 1008.0 0.0
25/02:30pm 10.1 5.7 7.3 83 1.4 SSW 20 33 11 18 1008.0 1007.8 0.0
25/02:00pm 10.5 5.2 6.8 78 1.8 SW 24 32 13 17 1007.9 1007.7 0.0
25/01:30pm 10.9 5.3 7.0 77 1.9 SSW 26 35 14 19 1007.8 1007.6 0.0
25/01:00pm 10.9 6.3 8.3 84 1.3 SSW 22 32 12 17 1007.6 1007.4 0.0
25/12:30pm 9.9 5.6 7.8 87 1.1 SW 20 28 11 15 1007.7 1007.5 0.0
25/12:00pm 11.1 5.6 7.6 79 1.8 SW 26 33 14 18 1007.6 1007.4 0.0
25/11:30am 10.8 5.5 6.9 77 1.9 SW 24 32 13 17 1007.5 1007.3 0.0
25/11:00am 11.1 6.1 6.5 73 2.3 SW 22 32 12 17 1007.4 1007.2 0.0
25/10:30am 11.7 7.6 6.2 69 2.7 SSW 17 26 9 14 1007.3 1007.1 0.0
25/10:00am 11.7 7.2 6.0 68 2.8 SW 19 28 10 15 1007.2 1007.0 0.0
25/09:30am 12.0 7.5 6.1 67 2.9 WSW 19 30 10 16 1007.2 1007.0 0.0
25/09:00am 11.7 7.2 6.8 72 2.4 WSW 20 32 11 17 1007.2 1007.0 0.2
25/08:30am 11.2 6.7 6.1 71 2.5 WSW 19 26 10 14 1007.0 1006.7 0.2
25/08:00am 10.5 6.3 5.7 72 2.3 W 17 22 9 12 1006.8 1006.6 0.2
25/07:30am 9.9 6.3 4.9 71 2.4 WNW 13 17 7 9 1006.4 1006.2 0.2
25/07:00am 8.4 4.5 5.2 80 1.5 NW 15 17 8 9 1006.2 1006.0 0.2
25/06:30am 6.4 2.3 4.6 88 0.8 NW 15 17 8 9 1006.0 1005.8 0.2
25/06:00am 6.1 3.4 3.6 84 1.1 NW 7 13 4 7 1005.9 1005.7 0.2
25/05:30am 7.2 5.9 4.2 81 1.4 CALM 0 6 0 3 1005.7 1005.4 0.2
25/05:00am 7.7 5.4 5.0 83 1.3 NW 6 7 3 4 1005.8 1005.5 0.2
25/04:30am 7.5 5.3 5.3 86 1.0 W 6 9 3 5 1005.8 1005.5 0.2
25/04:00am 7.9 5.7 6.2 89 0.8 WSW 7 11 4 6 1005.8 1005.5 0.2
25/03:30am 9.0 3.4 7.0 87 1.0 WNW 26 37 14 20 1006.1 1005.9 0.2
25/03:00am 8.8 6.0 8.7 99 0.1 WNW 13 17 7 9 1006.1 1005.9 0.2
25/02:30am 8.8 6.4 8.7 99 0.1 NW 11 15 6 8 1006.2 1006.0 0.2
25/02:00am 9.2 6.4 8.7 97 0.3 NNW 13 19 7 10 1006.4 1006.2 0.2
25/01:30am 9.8 7.4 8.6 92 0.6 W 11 13 6 7 1006.4 1006.2 0.2
25/01:00am 9.7 6.9 8.5 92 0.6 W 13 15 7 8 1006.7 1006.5 0.2
25/12:30am 9.2 6.0 8.4 95 0.4 NW 15 17 8 9 1007.2 1007.0 0.2
25/12:00am 9.1 7.5 8.6 97 0.3 NW 7 13 4 7 1007.2 1007.0 0.2
 
Date/Time
EST
Temp
°C
App
Temp
°C
Dew
Point
°C
Rel
Hum
%
Delta-T
°C
Wind Press
QNH
hPa
Press
MSL
hPa
Rain since
9am
mm
Dir  Spd
km/h
Gust
km/h
Spd
kts
Gust
kts
24/11:30pm 9.0 7.4 8.9 99 0.1 NW 7 9 4 5 1007.4 1007.2 0.2
24/11:00pm 8.5 6.5 8.5 100 0.0 NNW 9 11 5 6 1007.4 1007.2 0.2
24/10:30pm 8.2 6.6 8.2 100 0.0 NNW 6 9 3 5 1007.6 1007.4 0.2
24/10:00pm 9.3 8.4 9.3 100 0.0 NNE 4 4 2 2 1007.5 1007.3 0.2
24/09:30pm 10.0 9.7 10.0 100 0.0 NNE 2 2 1 1 1007.6 1007.4 0.2
24/09:00pm 9.9 9.2 9.9 100 0.0 NNE 4 6 2 3 1008.0 1007.8 0.2
24/08:30pm 10.9 10.4 10.9 100 0.0 NNW 4 6 2 3 1008.1 1008.0 0.2
24/08:00pm 10.9 10.8 10.9 100 0.0 NW 2 4 1 2 1008.4 1008.2 0.2
24/07:30pm 11.4 11.5 11.4 100 0.0 ENE 2 4 1 2 1008.5 1008.3 0.2
24/07:00pm 11.5 10.6 11.5 100 0.0 ENE 7 13 4 7 1008.0 1007.8 0.2
24/06:30pm 12.1 11.4 11.9 99 0.1 ENE 7 9 4 5 1007.8 1007.6 0.2
24/06:00pm 12.9 13.2 12.1 95 0.4 ENE 2 6 1 3 1007.7 1007.5 0.2
24/05:30pm 13.3 12.8 12.7 96 0.3 NE 7 15 4 8 1007.4 1007.2 0.2
24/05:00pm 13.9 12.6 12.5 91 0.8 ENE 11 17 6 9 1007.3 1007.1 0.2
24/04:30pm 14.3 12.6 12.3 88 1.1 NE 13 20 7 11 1007.2 1007.0 0.2
24/04:00pm 14.9 12.6 11.9 82 1.7 NE 15 20 8 11 1007.0 1006.7 0.2
24/03:30pm 16.1 13.5 10.6 70 3.0 NE 15 20 8 11 1006.5 1006.3 0.2
24/03:00pm 17.9 13.7 7.3 50 5.6 N 19 26 10 14 1006.5 1006.3 0.2
24/02:30pm 17.8 13.4 7.2 50 5.5 N 20 32 11 17 1007.0 1006.7 0.2
24/02:00pm 17.5 13.3 8.1 54 5.0 N 20 32 11 17 1007.5 1007.3 0.2
24/01:30pm 17.2 14.1 7.3 52 5.2 N 13 22 7 12 1008.0 1007.8 0.2
24/01:00pm 16.4 14.7 8.4 59 4.2 NNW 7 11 4 6 1008.7 1008.5 0.2
24/12:30pm 15.7 14.7 8.7 63 3.7 NNW 4 9 2 5 1009.1 1008.9 0.2
24/12:00pm 15.2 13.1 8.2 63 3.7 NNW 9 17 5 9 1009.5 1009.4 0.2
24/11:30am 14.7 12.5 9.3 70 2.9 NNW 11 19 6 10 1010.2 1010.0 0.2
24/11:00am 13.0 11.7 10.0 82 1.6 N 7 13 4 7 1010.7 1010.6 0.0
24/10:30am 10.7 8.9 9.3 91 0.7 NNW 9 13 5 7 1011.4 1011.2 0.0
24/10:00am 9.4 8.0 9.4 100 0.0 NNW 7 11 4 6 1011.7 1011.6 0.0
24/09:30am 7.6 5.9 7.6 100 0.0 NNW 6 9 3 5 1012.0 1011.9 0.0
24/09:00am 6.0 4.3 6.0 100 0.0 N 4 6 2 3 1012.4 1012.3 0.2
24/08:30am 5.2 2.8 5.2 100 0.0 NNW 7 9 4 5 1012.7 1012.6 0.2
24/08:00am 4.2 1.2 4.2 100 0.0 N 9 11 5 6 1012.9 1012.8 0.2
24/07:30am 3.2 0.4 3.2 100 0.0 NNW 7 9 4 5 1013.1 1013.0 0.2
24/07:00am 2.5 -0.8 2.5 100 0.0 NW 9 11 5 6 1012.9 1012.8 0.2
24/06:30am 2.1 -0.7 2.1 100 0.0 NNW 6 7 3 4 1012.7 1012.6 0.2
24/06:00am 2.1 -0.7 2.1 100 0.0 NNW 6 7 3 4 1012.6 1012.4 0.2
24/05:30am 2.4 0.0 2.4 100 0.0 N 4 4 2 2 1012.4 1012.3 0.2
24/05:00am 2.7 0.0 2.7 100 0.0 N 6 7 3 4 1012.6 1012.4 0.2
24/04:30am 2.9 0.1 2.9 100 0.0 NNW 7 9 4 5 1012.7 1012.6 0.2
24/04:00am 3.0 -0.2 3.0 100 0.0 NW 9 11 5 6 1012.7 1012.6 0.2
24/03:30am 3.4 0.8 3.4 100 0.0 NNW 6 7 3 4 1012.6 1012.4 0.2
24/03:00am 3.5 1.0 3.5 100 0.0 NW 6 7 3 4 1012.8 1012.7 0.2
24/02:30am 3.6 2.2 3.6 100 0.0 CALM 0 4 0 2 1013.0 1012.9 0.2
24/02:00am 3.5 2.1 3.5 100 0.0 CALM 0 0 0 0 1013.2 1013.1 0.2
24/01:30am 3.8 2.1 3.8 100 0.0 NNW 2 4 1 2 1013.4 1013.3 0.2
24/01:00am 4.3 2.3 4.3 100 0.0 NNW 4 7 2 4 1013.4 1013.3 0.2
24/12:30am 4.1 2.0 4.1 100 0.0 NNW 4 7 2 4 1013.4 1013.3 0.0
24/12:00am 4.7 2.8 4.7 100 0.0 N 4 6 2 3 1013.5 1013.4 0.0
 
Date/Time
EST
Temp
°C
App
Temp
°C
Dew
Point
°C
Rel
Hum
%
Delta-T
°C
Wind Press
QNH
hPa
Press
MSL
hPa
Rain since
9am
mm
Dir  Spd
km/h
Gust
km/h
Spd
kts
Gust
kts
23/11:30pm 4.3 3.0 4.3 100 0.0 CALM 0 0 0 0 1013.8 1013.8 0.0
23/11:00pm 4.1 2.8 4.1 100 0.0 CALM 0 0 0 0 1013.8 1013.8 0.0
23/10:30pm 4.8 3.6 4.8 100 0.0 CALM 0 4 0 2 1014.1 1014.0 0.0

Other Formats:

Comma delimited format used in spreadsheet applications
http://www.bom.gov.au/fwo/IDN60801/IDN60801.94929.axf

JavaScript Object Notation format (JSON) in row-major order
http://www.bom.gov.au/fwo/IDN60801/IDN60801.94929.json